ADDS METAR Data INFO
IDs: Format: Raw Decoded Include TAF

Data at: 2113 UTC 22 Oct 2017

KPVJ 222055Z AUTO 01007KT 10SM CLR 21/03 A3015 RMK AO2 T02050026
KPVJ 222035Z AUTO 34008G15KT 10SM CLR 20/03 A3016 RMK AO2 T02040025
KPVJ 222015Z AUTO 35012G15KT 10SM CLR 21/03 A3016 RMK AO2 T02050031
KPVJ 221955Z AUTO 34009KT 10SM CLR 20/03 A3016 RMK AO2 T02020033
KPVJ 221935Z AUTO 34011G15KT 10SM CLR 20/04 A3017 RMK AO2 T02040043
KPVJ 221915Z AUTO 36009G16KT 10SM CLR 20/04 A3018 RMK AO2 T02020044
KPVJ 221855Z AUTO 35010KT 10SM CLR 20/04 A3019 RMK AO2 T01950042
KPVJ 221835Z AUTO 34012G17KT 10SM CLR 20/05 A3020 RMK AO2 T01970049
KPVJ 221815Z AUTO 01011G16KT 10SM CLR 19/05 A3021 RMK AO2 T01910053
KPVJ 221755Z AUTO 34010KT 10SM CLR 19/06 A3021 RMK AO2 T01880062 10190 20105
KPVJ 221735Z AUTO 35009G14KT 10SM CLR 19/06 A3021 RMK AO2 T01860063
KPVJ 221715Z AUTO 35011KT 10SM CLR 18/07 A3021 RMK AO2 T01830067
KPVJ 221655Z AUTO 34010KT 10SM CLR 18/08 A3021 RMK AO2 T01780075
KPVJ 221635Z AUTO 33009KT 10SM CLR 17/07 A3021 RMK AO2 T01720074
KPVJ 221615Z AUTO 36009G14KT 10SM CLR 17/09 A3020 RMK AO2 T01660085
KPVJ 221555Z AUTO 35011KT 10SM CLR 16/09 A3020 RMK AO2 T01570086
KPVJ 221535Z AUTO 34010KT 10SM CLR 15/10 A3019 RMK AO2 T01500097
KPVJ 221515Z AUTO 33010G14KT 10SM CLR 14/10 A3018 RMK AO2 T01430101
KPVJ 221455Z AUTO 34009KT 10SM CLR 14/11 A3018 RMK AO2 T01350105
KPVJ 221435Z AUTO 35006KT 10SM CLR 13/11 A3016 RMK AO2 T01300109
KPVJ 221415Z AUTO 33006KT 10SM CLR 12/11 A3016 RMK AO2 T01160109
KPVJ 221355Z AUTO 32005KT 10SM CLR 12/11 A3016 RMK AO2 T01150111
KPVJ 221335Z AUTO 33005KT 10SM CLR 11/11 A3015 RMK AO2 T01080108
KPVJ 221315Z AUTO 34007KT 10SM CLR 11/11 A3014 RMK AO2 T01050105
KPVJ 221255Z AUTO 34007KT 10SM CLR 11/11 A3014 RMK AO2 T01070107
KPVJ 221235Z AUTO 35007KT 10SM CLR 11/11 A3013 RMK AO2 T01100110
KPVJ 221215Z AUTO 36007KT 10SM SCT010 11/11 A3011 RMK AO2 T01130113
KPVJ 221155Z AUTO 34008KT 10SM OVC010 12/12 A3011 RMK AO2 60051 70126 T01200120 10149 20120
KPVJ 221135Z AUTO 36009KT 10SM OVC010 13/13 A3010 RMK AO2 T01250125
KPVJ 221115Z AUTO 36010KT 10SM OVC010 13/13 A3009 RMK AO2 T01260126
KPVJ 221055Z AUTO 01007KT 10SM OVC010 13/13 A3008 RMK AO2 T01280128
KPVJ 221035Z AUTO 36011KT 10SM OVC010 13/13 A3008 RMK AO2 T01300130
KPVJ 221015Z AUTO 36009G16KT 10SM OVC010 13/13 A3007 RMK AO2 LTG DSNT SE T01300130
KPVJ 220955Z AUTO 35009KT 10SM OVC010 13/13 A3009 RMK AO2 P0007 T01320132
KPVJ 220935Z AUTO 35009KT 10SM OVC010 14/14 A3006 RMK AO2 P0005 T01350135
KPVJ 220915Z AUTO 34010KT 10SM BKN010 OVC017 14/14 A3005 RMK AO2 LTG DSNT E AND SE P0003 T01410141
KPVJ 220855Z AUTO 33006KT 10SM SCT009 BKN017 BKN120 15/15 A3004 RMK AO2 LTG DSNT E AND SE P0011 60043 T01450145
KPVJ 220835Z AUTO 03008KT 10SM SCT015 SCT025 BKN120 15/15 A3001 RMK AO2 LTG DSNT E AND SE P0008 T01450145
KPVJ 220815Z AUTO 02009KT 10SM SCT013 BKN017 OVC024 15/15 A3002 RMK AO2 LTG DSNT NE THRU SE P0004 T01470147
KPVJ 220755Z AUTO 33008KT 10SM BKN010 OVC014 15/15 A3002 RMK AO2 LTG DSNT SE AND S P0014 T01480148
KPVJ 220735Z AUTO 30007KT 10SM OVC010 15/15 A3002 RMK AO2 LTG DSNT SE AND S P0009 T01480148
KPVJ 220715Z AUTO 05010G16KT 10SM -RA SCT007 BKN012 OVC120 15/15 A2991 RMK AO2 LTG DSNT NE THRU S P0004 T01450145
KPVJ 220655Z AUTO 36007KT 10SM RA SCT008 OVC090 15/15 A2997 RMK AO2 LTG DSNT E THRU SW P0017 T01450145
KPVJ 220635Z AUTO 33004KT 10SM RA SCT008 OVC090 15/15 A2997 RMK AO2 LTG DSNT E AND S P0011 T01450145
KPVJ 220615Z AUTO 35008KT 10SM -RA BKN008 BKN022 OVC090 15/15 A2993 RMK AO2 LTG DSNT NE THRU S P0005 T01450145
KPVJ 220555Z AUTO 02008G15KT 10SM VCTSRA SCT008 SCT020 OVC080 14/14 A2993 RMK AO2 LTG DSNT ALQS P0018 60074 T01430143 10250 20143 402660143
KPVJ 220535Z AUTO 33011G17KT 7SM TSRA SCT008 BKN075 OVC090 15/15 A2999 RMK AO2 LTG DSNT ALQS P0012 T01460146
KPVJ 220515Z AUTO 31010KT 10SM TSRA BKN008 BKN021 OVC090 15/15 A3000 RMK AO2 LTG DSNT ALQS P0005 T01540154
KPVJ 220455Z AUTO 32004KT 7SM VCTSRA BKN007 OVC010 16/16 A2998 RMK AO2 LTG DSNT ALQS P0023 T01550155
KPVJ 220435Z AUTO 26006KT 5SM TSRA BKN009 OVC041 16/16 A2997 RMK AO2 LTG DSNT ALQS P0015 T01560156
KPVJ 220415Z AUTO 00000KT 3SM +TSRA SCT007 BKN040 OVC050 16/16 A2994 RMK AO2 LTG DSNT ALQS P0008 T01550155
KPVJ 220355Z AUTO 33005KT 4SM +TSRA SCT005 BKN012 OVC045 16/16 A2992 RMK AO2 LTG DSNT ALQS P0033 T01550155
KPVJ 220335Z AUTO 31010G19KT 1 1/4SM +TSRA SCT003 BKN012 OVC050 16/16 A2992 RMK AO2 LTG DSNT ALQS P0020 T01550155
KPVJ 220315Z AUTO 31015G20KT 7SM -VCTSRA SCT020 BKN048 OVC050 16/16 A2990 RMK AO2 LTG DSNT ALQS P0003 T01580158
KPVJ 220255Z AUTO 30026G36KT 10SM -VCTSRA SCT022 BKN044 OVC075 18/14 A2990 RMK AO2 LTG DSNT ALQS T01770138
KPVJ 220235Z AUTO 20006KT 10SM SCT060 BKN080 OVC110 24/19 A2984 RMK AO2 LTG DSNT ALQS T02420190
KPVJ 220215Z AUTO 16005KT 10SM BKN055 OVC080 25/19 A2979 RMK AO2 LTG DSNT N AND W T02450190
KPVJ 220155Z AUTO 16007KT 10SM BKN060 BKN070 OVC080 25/19 A2978 RMK AO2 LTG DSNT W THRU N T02450191
KPVJ 220135Z AUTO 16007KT 10SM SCT060 OVC075 25/19 A2978 RMK AO2 LTG DSNT W THRU N T02460192
KPVJ 220115Z AUTO 16004KT 10SM OVC075 25/19 A2979 RMK AO2 LTG DSNT N AND NW T02450193
KPVJ 220055Z AUTO 14007KT 10SM OVC075 25/19 A2978 RMK AO2 LTG DSNT W THRU N T02450193
KPVJ 220035Z AUTO 15008G14KT 10SM BKN065 25/19 A2977 RMK AO2 LTG DSNT W T02450193
KPVJ 220015Z AUTO 14010G14KT 10SM SCT065 25/19 A2977 RMK AO2 T02450194
KPVJ 212355Z AUTO 14008KT 10SM OVC065 25/19 A2978 RMK AO2 T02500192 10266 20242
KPVJ 212335Z AUTO 15006KT 10SM SCT050 OVC065 25/19 A2980 RMK AO2 T02510191
KPVJ 212315Z AUTO 16006G14KT 10SM BKN050 OVC065 25/19 A2980 RMK AO2 T02530191
KPVJ 212255Z AUTO 16008G14KT 10SM SCT055 BKN065 26/19 A2980 RMK AO2 T02550192
KPVJ 212235Z AUTO 16010G16KT 10SM SCT060 26/19 A2980 RMK AO2 T02600194
KPVJ 212215Z AUTO 15008KT 10SM BKN060 26/19 A2980 RMK AO2 LTG DSNT N AND E T02550192
KPVJ 212155Z AUTO 16010G14KT 10SM SCT036 SCT047 OVC060 25/19 A2981 RMK AO2 LTG DSNT N T02520191
KPVJ 212135Z AUTO 16008KT 130V190 10SM SCT036 BKN047 OVC060 25/19 A2982 RMK AO2 LTG DSNT NW T02530192
KPVJ 212115Z AUTO 17008G15KT 10SM BKN034 BKN042 OVC049 25/19 A2982 RMK AO2 T02510190
KPVJ 212055Z AUTO 15009G17KT 10SM BKN034 OVC040 25/19 A2982 RMK AO2 T02510189
KPVJ 212035Z AUTO 16010G17KT 10SM BKN036 OVC047 26/19 A2982 RMK AO2 T02580189
KPVJ 212015Z AUTO 18008G20KT 10SM SCT033 SCT040 BKN047 26/19 A2981 RMK AO2 T02590190
KPVJ 211955Z AUTO 16013G21KT 10SM BKN034 BKN043 BKN050 26/19 A2982 RMK AO2 T02630191
KPVJ 211935Z AUTO 17012G18KT 10SM BKN032 BKN045 OVC050 26/19 A2983 RMK AO2 T02610192
KPVJ 211915Z AUTO 17011G17KT 10SM BKN030 BKN040 OVC049 25/19 A2984 RMK AO2 T02500191
KPVJ 211855Z AUTO 17011G17KT 130V190 10SM BKN032 OVC039 25/19 A2985 RMK AO2 T02500193
KPVJ 211835Z AUTO 19010G15KT 10SM SCT027 OVC035 25/19 A2986 RMK AO2 T02500191
KPVJ 211815Z AUTO 17010G16KT 10SM BKN023 BKN031 OVC050 25/20 A2987 RMK AO2 T02460195
KPVJ 211755Z AUTO 18010G17KT 10SM OVC023 24/20 A2988 RMK AO2 T02410196 10247 20209
KPVJ 211735Z AUTO 17008G17KT 10SM OVC023 25/20 A2988 RMK AO2 T02460196
KPVJ 211715Z AUTO 16009G16KT 10SM OVC023 24/20 A2989 RMK AO2 T02360196
KPVJ 211655Z AUTO 16012G19KT 10SM OVC023 23/20 A2989 RMK AO2 T02320195
KPVJ 211635Z AUTO 17012G19KT 10SM OVC021 23/19 A2989 RMK AO2 T02300193
KPVJ 211615Z AUTO 17008G18KT 10SM OVC021 23/19 A2989 RMK AO2 T02320193
KPVJ 211555Z AUTO 16010G16KT 10SM OVC021 23/20 A2989 RMK AO2 T02310196
KPVJ 211535Z AUTO 16009G15KT 130V190 10SM OVC019 23/20 A2989 RMK AO2 T02250197
KPVJ 211515Z AUTO 16012G17KT 10SM OVC017 22/20 A2989 RMK AO2 T02220201
KPVJ 211455Z AUTO 17009G16KT 10SM OVC015 22/20 A2989 RMK AO2 T02200202
KPVJ 211435Z AUTO 17009G14KT 10SM OVC015 22/20 A2990 RMK AO2 T02170203
KPVJ 211415Z AUTO 16008KT 10SM BKN015 BKN046 OVC050 21/21 A2989 RMK AO2 T02130205
KPVJ 211355Z AUTO 16010G14KT 10SM BKN015 OVC050 21/21 A2989 RMK AO2 T02100205
KPVJ 211335Z AUTO 15009KT 10SM SCT015 BKN024 OVC050 21/21 A2988 RMK AO2 T02100205
KPVJ 211315Z AUTO 16006KT 10SM BKN017 BKN021 OVC026 21/21 A2988 RMK AO2 T02100205
KPVJ 211255Z AUTO 17006KT 10SM OVC015 21/20 A2988 RMK AO2 T02100203
KPVJ 211235Z AUTO 17008KT 130V190 10SM OVC015 21/20 A2988 RMK AO2 T02100203
KPVJ 211215Z AUTO 16007KT 10SM OVC015 21/20 A2987 RMK AO2 T02100202
KPVJ 211155Z AUTO 16008KT 10SM OVC015 21/20 A2986 RMK AO2 T02100202 10213 20205
KPVJ 211135Z AUTO 17006KT 10SM OVC015 21/20 A2986 RMK AO2 T02100201
KPVJ 211115Z AUTO 17007KT 10SM OVC017 21/20 A2986 RMK AO2 T02100201
KPVJ 211055Z AUTO 17009G15KT 10SM OVC017 21/20 A2985 RMK AO2 T02070200
KPVJ 211035Z AUTO 16008KT 10SM OVC015 21/20 A2984 RMK AO2 T02070200
KPVJ 211015Z AUTO 15011G15KT 130V190 10SM OVC015 21/20 A2985 RMK AO2 T02070200
KPVJ 210955Z AUTO 16008G15KT 10SM OVC015 21/20 A2984 RMK AO2 T02070197
KPVJ 210935Z AUTO 16008G14KT 10SM OVC015 21/20 A2984 RMK AO2 T02060196
KPVJ 210915Z AUTO 16009G16KT 10SM OVC015 21/20 A2985 RMK AO2 T02060195